createdAt,value
2023-01-13T08:08:28.519Z,600.00
2023-01-13T08:09:28.469Z,1060.00
2023-01-13T08:10:28.454Z,1080.00
2023-01-13T08:11:28.436Z,1020.00
2023-01-13T08:12:28.434Z,900.00
2023-01-13T08:13:28.416Z,768.00
2023-01-13T08:14:28.414Z,908.00
2023-01-13T08:15:28.404Z,880.00
2023-01-13T08:16:28.405Z,952.00
2023-01-13T08:17:28.382Z,988.00
2023-01-13T08:18:28.351Z,1000.00
2023-01-13T08:19:28.358Z,984.00
2023-01-13T08:20:28.350Z,964.00
2023-01-13T08:21:28.421Z,996.00
2023-01-13T08:22:28.347Z,1008.00
2023-01-13T08:23:28.307Z,1044.00
2023-01-13T08:24:28.329Z,1064.00
2023-01-13T08:25:28.275Z,1048.00
2023-01-13T08:26:28.270Z,1204.00
2023-01-13T08:27:28.313Z,1104.00
2023-01-13T08:28:28.257Z,1076.00
2023-01-13T08:29:28.250Z,1108.00
2023-01-13T08:30:28.338Z,1104.00
2023-01-13T08:31:28.223Z,1168.00
2023-01-13T08:32:28.205Z,1168.00
2023-01-13T08:33:28.226Z,1352.00
2023-01-13T08:34:28.173Z,1316.00
2023-01-13T08:35:28.177Z,1472.00
2023-01-13T08:36:28.152Z,1396.00
2023-01-13T08:37:28.152Z,1260.00
2023-01-13T08:38:28.172Z,1300.00
2023-01-13T08:39:28.123Z,1632.00
2023-01-13T08:40:28.131Z,1548.00
2023-01-13T08:41:28.093Z,1540.00
2023-01-13T08:42:28.107Z,2024.00
2023-01-13T08:43:28.108Z,1984.00
2023-01-13T08:44:28.069Z,2216.00
2023-01-13T08:45:28.049Z,2368.00
2023-01-13T08:46:28.069Z,1768.00
2023-01-13T08:47:28.035Z,1772.00
2023-01-13T08:48:31.157Z,1540.00
2023-01-13T08:49:28.006Z,1472.00
2023-01-13T08:50:28.005Z,1316.00
2023-01-13T08:51:28.192Z,1348.00
2023-01-13T08:52:27.968Z,1704.00
2023-01-13T08:53:27.970Z,1532.00
2023-01-13T08:54:27.941Z,1404.00
2023-01-13T08:55:27.938Z,1232.00
2023-01-13T08:56:27.942Z,1104.00
2023-01-13T08:57:27.920Z,1368.00
2023-01-13T08:58:27.952Z,1100.00
2023-01-13T08:59:27.907Z,1148.00
2023-01-13T09:00:27.876Z,1272.00
2023-01-13T09:01:28.102Z,1560.00
2023-01-13T09:02:27.976Z,1328.00
2023-01-13T09:03:27.860Z,1260.00
2023-01-13T09:04:27.899Z,1324.00
2023-01-13T09:05:27.834Z,1708.00
2023-01-13T09:06:27.807Z,1972.00
2023-01-13T09:07:27.797Z,1952.00
2023-01-13T09:08:27.801Z,1964.00
2023-01-13T09:09:27.825Z,1820.00
2023-01-13T09:10:27.765Z,1784.00
2023-01-13T09:11:27.759Z,1728.00
2023-01-13T09:12:27.782Z,2132.00
2023-01-13T09:13:27.765Z,2472.00
2023-01-13T09:14:27.732Z,2288.00
2023-01-13T09:15:27.722Z,2092.00
2023-01-13T09:16:27.698Z,1760.00
2023-01-13T09:17:27.689Z,2344.00
2023-01-13T09:18:27.701Z,2864.00
2023-01-13T09:19:27.671Z,2824.00
2023-01-13T09:20:27.665Z,2544.00
2023-01-13T09:21:27.648Z,2736.00
2023-01-13T09:22:27.651Z,3156.00
2023-01-13T09:23:27.624Z,2364.00
2023-01-13T09:24:27.618Z,1784.00
2023-01-13T09:25:27.592Z,1984.00
2023-01-13T09:26:27.597Z,1920.00
2023-01-13T09:27:27.568Z,2108.00
2023-01-13T09:28:27.620Z,2088.00
2023-01-13T09:29:27.565Z,1948.00
2023-01-13T09:30:27.541Z,2300.00
2023-01-13T09:31:27.569Z,1844.00
2023-01-13T09:32:27.518Z,2120.00
2023-01-13T09:33:27.525Z,2132.00
2023-01-13T09:34:27.491Z,2224.00
2023-01-13T09:35:27.476Z,2464.00
2023-01-13T09:36:27.491Z,2840.00
2023-01-13T09:37:27.452Z,2516.00
2023-01-13T09:38:27.474Z,2312.00
2023-01-13T09:39:27.444Z,2160.00
2023-01-13T09:40:27.439Z,2732.00
2023-01-13T09:41:27.410Z,3280.00
2023-01-13T09:42:27.399Z,2900.00
2023-01-13T09:43:27.396Z,2676.00
2023-01-13T09:44:27.416Z,3204.00
2023-01-13T09:45:27.364Z,3024.00
2023-01-13T09:46:27.438Z,3004.00
2023-01-13T09:47:27.339Z,3172.00
2023-01-13T09:48:27.359Z,3916.00
2023-01-13T09:49:27.331Z,3976.00
2023-01-13T09:50:27.312Z,3712.00
2023-01-13T09:51:27.353Z,2584.00
2023-01-13T09:52:27.304Z,2300.00
2023-01-13T09:53:27.283Z,3036.00
2023-01-13T09:54:27.283Z,3060.00
2023-01-13T09:55:27.260Z,2932.00
2023-01-13T09:56:27.262Z,2392.00
2023-01-13T09:57:27.228Z,2224.00
2023-01-13T09:58:27.231Z,2724.00
2023-01-13T09:59:27.206Z,3548.00
2023-01-13T10:00:27.220Z,3380.00
2023-01-13T10:01:27.282Z,3316.00
2023-01-13T10:02:27.172Z,3608.00
2023-01-13T10:03:27.209Z,3484.00
2023-01-13T10:04:27.225Z,3684.00
2023-01-13T10:05:27.137Z,3532.00
2023-01-13T10:06:27.154Z,2560.00
2023-01-13T10:07:27.117Z,2588.00
2023-01-13T10:08:27.119Z,3004.00
2023-01-13T10:09:27.099Z,3420.00
2023-01-13T10:10:27.082Z,4432.00
2023-01-13T10:11:27.069Z,4964.00
2023-01-13T10:12:27.070Z,5420.00
2023-01-13T10:13:27.071Z,4192.00
2023-01-13T10:14:27.044Z,3504.00
2023-01-13T10:15:27.035Z,5284.00
2023-01-13T10:16:27.137Z,5652.00
2023-01-13T10:17:27.014Z,3920.00
2023-01-13T10:18:27.035Z,5140.00
2023-01-13T10:19:26.983Z,3244.00
2023-01-13T10:20:27.077Z,3408.00
2023-01-13T10:21:28.057Z,6500.00
2023-01-13T10:22:26.962Z,6220.00
2023-01-13T10:23:26.932Z,3360.00
2023-01-13T10:24:26.935Z,3932.00
2023-01-13T10:25:26.904Z,3952.00
2023-01-13T10:26:27.005Z,3592.00
2023-01-13T10:27:26.885Z,3664.00
2023-01-13T10:28:26.884Z,3368.00
2023-01-13T10:29:26.890Z,3104.00
2023-01-13T10:30:26.866Z,3700.00
2023-01-13T10:31:26.953Z,2400.00
2023-01-13T10:32:26.856Z,2392.00
2023-01-13T10:33:27.964Z,3736.00
2023-01-13T10:34:26.837Z,2452.00
2023-01-13T10:35:26.792Z,2512.00
2023-01-13T10:36:26.786Z,3136.00
2023-01-13T10:37:26.768Z,3420.00
2023-01-13T10:38:26.781Z,6356.00
2023-01-13T10:39:26.762Z,1884.00
2023-01-13T10:40:26.758Z,2536.00
2023-01-13T10:41:26.760Z,2444.00
2023-01-13T10:42:26.732Z,3364.00
2023-01-13T10:43:26.715Z,3064.00
2023-01-13T10:44:26.711Z,4632.00
2023-01-13T10:45:26.678Z,2280.00
2023-01-13T10:46:26.691Z,2072.00
2023-01-13T10:47:26.678Z,1972.00
2023-01-13T10:48:26.675Z,3156.00
2023-01-13T10:49:26.662Z,3636.00
2023-01-13T10:50:26.625Z,4520.00
2023-01-13T10:51:26.640Z,5772.00
2023-01-13T10:52:26.671Z,4132.00
2023-01-13T10:53:26.592Z,5244.00
2023-01-13T10:54:26.604Z,4652.00
2023-01-13T10:55:26.570Z,4572.00
2023-01-13T10:56:26.585Z,4704.00
2023-01-13T10:57:26.547Z,4580.00
2023-01-13T10:58:26.548Z,4024.00
2023-01-13T10:59:26.535Z,3580.00
2023-01-13T11:00:26.544Z,3516.00
2023-01-13T11:01:26.724Z,3432.00
2023-01-13T11:02:27.103Z,3344.00
2023-01-13T11:03:26.476Z,2736.00
2023-01-13T11:04:26.553Z,2896.00
2023-01-13T11:05:26.466Z,4016.00
2023-01-13T11:06:26.464Z,3256.00
2023-01-13T11:07:28.330Z,2164.00
2023-01-13T11:08:26.426Z,1848.00
2023-01-13T11:09:26.437Z,1600.00
2023-01-13T11:10:26.425Z,1652.00
2023-01-13T11:11:26.399Z,1692.00
2023-01-13T11:12:26.377Z,1680.00
2023-01-13T11:13:26.375Z,2552.00
2023-01-13T11:14:26.394Z,2780.00
2023-01-13T11:15:26.356Z,2232.00
2023-01-13T11:16:26.409Z,1960.00
2023-01-13T11:17:26.319Z,2292.00
2023-01-13T11:18:26.339Z,2344.00
2023-01-13T11:19:26.310Z,2188.00
2023-01-13T11:20:26.311Z,2028.00
2023-01-13T11:21:26.284Z,1668.00
2023-01-13T11:22:26.267Z,1940.00
2023-01-13T11:23:26.260Z,2084.00
2023-01-13T11:24:26.257Z,1884.00
2023-01-13T11:25:26.240Z,2928.00
2023-01-13T11:26:26.222Z,2596.00
2023-01-13T11:27:26.217Z,2068.00
2023-01-13T11:28:26.226Z,2200.00
2023-01-13T11:29:26.214Z,2684.00
2023-01-13T11:30:26.177Z,3016.00
2023-01-13T11:31:26.189Z,2800.00
2023-01-13T11:32:26.155Z,3144.00
2023-01-13T11:33:26.138Z,3916.00
2023-01-13T11:34:26.150Z,3904.00
2023-01-13T11:35:26.135Z,3376.00
2023-01-13T11:36:26.155Z,3088.00
2023-01-13T11:37:26.103Z,3016.00
2023-01-13T11:38:26.083Z,3004.00
2023-01-13T11:39:26.096Z,3504.00
2023-01-13T11:40:26.080Z,3308.00
2023-01-13T11:41:26.065Z,2704.00
2023-01-13T11:42:26.050Z,2072.00
2023-01-13T11:43:26.050Z,1712.00
2023-01-13T11:44:26.054Z,1724.00
2023-01-13T11:45:26.015Z,2456.00
2023-01-13T11:46:26.031Z,2536.00
2023-01-13T11:47:25.988Z,3316.00
2023-01-13T11:48:25.981Z,2484.00
2023-01-13T11:49:25.983Z,2760.00
2023-01-13T11:50:25.960Z,2700.00
2023-01-13T11:51:25.931Z,2608.00
2023-01-13T11:52:25.957Z,2208.00
2023-01-13T11:53:25.921Z,2080.00
2023-01-13T11:54:25.922Z,1908.00
2023-01-13T11:55:25.898Z,1836.00
2023-01-13T11:56:25.890Z,2056.00
2023-01-13T11:57:25.895Z,2472.00
2023-01-13T11:58:25.853Z,3260.00
2023-01-13T11:59:25.906Z,5196.00
2023-01-13T12:00:25.846Z,4116.00
2023-01-13T12:01:25.890Z,3100.00
2023-01-13T12:02:25.889Z,2628.00
2023-01-13T12:03:25.857Z,2332.00
2023-01-13T12:04:25.803Z,1936.00
2023-01-13T12:05:25.771Z,1864.00
2023-01-13T12:06:25.767Z,2116.00
2023-01-13T12:07:25.760Z,1488.00
2023-01-13T12:08:25.779Z,1456.00
2023-01-13T12:09:25.745Z,1792.00
2023-01-13T12:10:25.734Z,2140.00
2023-01-13T12:11:25.705Z,2652.00
2023-01-13T12:12:25.735Z,2392.00
2023-01-13T12:13:25.703Z,2324.00
2023-01-13T12:14:25.701Z,2356.00
2023-01-13T12:15:25.674Z,2180.00
2023-01-13T12:16:25.804Z,1964.00
2023-01-13T12:17:25.647Z,2064.00
2023-01-13T12:18:25.649Z,2244.00
2023-01-13T12:19:25.649Z,2520.00
2023-01-13T12:20:25.623Z,2400.00
2023-01-13T12:21:25.612Z,1668.00
2023-01-13T12:22:25.591Z,1300.00
2023-01-13T12:23:25.581Z,1308.00
2023-01-13T12:24:25.610Z,1484.00
2023-01-13T12:25:25.571Z,2068.00
2023-01-13T12:26:25.562Z,2780.00
2023-01-13T12:27:25.536Z,2904.00
2023-01-13T12:28:25.536Z,3080.00
2023-01-13T12:29:25.514Z,2632.00
2023-01-13T12:30:25.527Z,2552.00
2023-01-13T12:31:25.523Z,1964.00
2023-01-13T12:32:25.487Z,1056.00
2023-01-13T12:33:25.453Z,1036.00
2023-01-13T12:34:25.464Z,1096.00
2023-01-13T12:35:25.489Z,1408.00
2023-01-13T12:36:25.430Z,1888.00
2023-01-13T12:37:25.408Z,2484.00
2023-01-13T12:38:25.416Z,2448.00
2023-01-13T12:39:25.400Z,2336.00
2023-01-13T12:40:25.429Z,2400.00
2023-01-13T12:41:25.368Z,2600.00
2023-01-13T12:42:25.370Z,2380.00
2023-01-13T12:43:25.356Z,2340.00
2023-01-13T12:44:25.335Z,2288.00
2023-01-13T12:45:25.345Z,2824.00
2023-01-13T12:46:25.326Z,3056.00
2023-01-13T12:47:25.310Z,2312.00
2023-01-13T12:48:25.303Z,1652.00
2023-01-13T12:49:25.289Z,1212.00
2023-01-13T12:50:25.294Z,1480.00
2023-01-13T12:51:25.251Z,1376.00
2023-01-13T12:52:25.272Z,1200.00
2023-01-13T12:53:25.229Z,1512.00
2023-01-13T12:54:25.222Z,1800.00
2023-01-13T12:55:25.235Z,1656.00
2023-01-13T12:56:25.227Z,1296.00
2023-01-13T12:57:25.184Z,1060.00
2023-01-13T12:58:25.188Z,904.00
2023-01-13T12:59:25.162Z,812.00
2023-01-13T13:00:25.178Z,1000.00
2023-01-13T13:01:25.267Z,1108.00
2023-01-13T13:02:25.184Z,1188.00
2023-01-13T13:03:25.132Z,980.00
2023-01-13T13:04:25.119Z,828.00
2023-01-13T13:05:25.142Z,880.00
2023-01-13T13:06:25.097Z,1096.00
2023-01-13T13:07:25.066Z,916.00
2023-01-13T13:08:25.077Z,836.00
2023-01-13T13:09:25.066Z,760.00
2023-01-13T13:10:25.051Z,636.00
2023-01-13T13:11:25.039Z,648.00
2023-01-13T13:12:25.042Z,748.00
2023-01-13T13:13:25.000Z,600.00
2023-01-13T13:14:25.005Z,400.00
2023-01-13T13:15:25.002Z,336.00
2023-01-13T13:16:24.994Z,260.00
2023-01-13T13:17:24.967Z,252.00
2023-01-13T13:18:24.976Z,248.00
2023-01-13T13:19:24.931Z,236.00
2023-01-13T13:20:24.948Z,244.00
2023-01-13T13:21:24.911Z,212.00
2023-01-13T13:22:24.919Z,232.00
2023-01-13T13:23:24.886Z,220.00
2023-01-13T13:24:24.883Z,196.00
2023-01-13T13:25:24.887Z,244.00
2023-01-13T13:26:24.888Z,232.00
2023-01-13T13:27:24.840Z,312.00
2023-01-13T13:28:24.878Z,412.00
2023-01-13T13:29:24.836Z,556.00
2023-01-13T13:30:24.846Z,420.00
2023-01-13T13:31:24.814Z,332.00
2023-01-13T13:32:24.806Z,548.00
2023-01-13T13:33:24.782Z,584.00
2023-01-13T13:34:24.786Z,376.00
2023-01-13T13:35:24.758Z,484.00
2023-01-13T13:36:24.741Z,528.00
2023-01-13T13:37:24.726Z,496.00
2023-01-13T13:38:24.717Z,488.00
2023-01-13T13:39:24.713Z,464.00
2023-01-13T13:40:24.720Z,376.00
2023-01-13T13:41:24.700Z,276.00
2023-01-13T13:42:24.675Z,260.00
2023-01-13T13:43:24.677Z,300.00
2023-01-13T13:44:24.668Z,352.00
2023-01-13T13:45:24.652Z,556.00
2023-01-13T13:46:24.770Z,572.00
2023-01-13T13:47:24.628Z,444.00
2023-01-13T13:48:24.603Z,448.00
2023-01-13T13:49:24.607Z,468.00
2023-01-13T13:50:24.593Z,472.00
2023-01-13T13:51:24.600Z,572.00
2023-01-13T13:52:24.631Z,464.00
2023-01-13T13:53:24.563Z,340.00
2023-01-13T13:54:24.554Z,324.00
2023-01-13T13:55:24.554Z,328.00
2023-01-13T13:56:24.523Z,308.00
2023-01-13T13:57:24.518Z,312.00
2023-01-13T13:58:24.487Z,232.00
2023-01-13T13:59:24.481Z,412.00
2023-01-13T14:00:24.482Z,396.00
2023-01-13T14:01:24.624Z,432.00
2023-01-13T14:02:24.535Z,548.00
2023-01-13T14:03:24.445Z,900.00
2023-01-13T14:04:24.472Z,800.00
2023-01-13T14:05:24.431Z,800.00
2023-01-13T14:06:24.411Z,984.00
2023-01-13T14:07:24.403Z,860.00
2023-01-13T14:08:24.363Z,904.00
2023-01-13T14:09:24.341Z,964.00
2023-01-13T14:10:24.353Z,804.00
2023-01-13T14:11:24.303Z,640.00
2023-01-13T14:12:24.303Z,940.00
2023-01-13T14:13:24.293Z,992.00
2023-01-13T14:14:24.277Z,1068.00
2023-01-13T14:15:24.265Z,1252.00
2023-01-13T14:16:24.272Z,1116.00
2023-01-13T14:17:24.230Z,920.00
2023-01-13T14:18:24.247Z,816.00
2023-01-13T14:19:24.219Z,496.00
2023-01-13T14:20:24.190Z,580.00
2023-01-13T14:21:24.179Z,732.00
2023-01-13T14:22:24.189Z,868.00
2023-01-13T14:23:24.168Z,568.00
2023-01-13T14:24:24.162Z,628.00
2023-01-13T14:25:24.153Z,760.00
2023-01-13T14:26:24.126Z,792.00
2023-01-13T14:27:24.125Z,784.00
2023-01-13T14:28:24.104Z,848.00
2023-01-13T14:29:24.101Z,908.00
2023-01-13T14:30:24.075Z,932.00
2023-01-13T14:31:24.129Z,808.00
2023-01-13T14:32:24.076Z,972.00
2023-01-13T14:33:24.057Z,900.00
2023-01-13T14:34:31.054Z,804.00
2023-01-13T14:35:25.022Z,740.00
2023-01-13T14:36:23.990Z,708.00
2023-01-13T14:37:23.987Z,728.00
2023-01-13T14:38:23.964Z,868.00
2023-01-13T14:39:23.988Z,808.00
2023-01-13T14:40:23.940Z,748.00
2023-01-13T14:41:23.955Z,804.00
2023-01-13T14:42:23.919Z,880.00
2023-01-13T14:43:23.909Z,968.00
2023-01-13T14:44:23.927Z,1004.00
2023-01-13T14:45:23.905Z,840.00
2023-01-13T14:46:23.876Z,660.00
2023-01-13T14:47:23.869Z,572.00
2023-01-13T14:48:23.869Z,544.00
2023-01-13T14:49:23.869Z,512.00
2023-01-13T14:50:23.835Z,440.00
2023-01-13T14:51:23.835Z,356.00
2023-01-13T14:52:23.814Z,356.00
2023-01-13T14:53:23.804Z,368.00
2023-01-13T14:54:23.798Z,356.00
2023-01-13T14:55:23.774Z,312.00
2023-01-13T14:56:23.760Z,304.00
2023-01-13T14:57:23.757Z,372.00
2023-01-13T14:58:23.743Z,364.00
2023-01-13T14:59:23.747Z,292.00
2023-01-13T15:00:23.731Z,236.00
2023-01-13T15:01:23.772Z,216.00
2023-01-13T15:02:23.722Z,224.00
2023-01-13T15:03:23.672Z,220.00
2023-01-13T15:04:23.705Z,240.00
2023-01-13T15:05:23.662Z,224.00
2023-01-13T15:06:23.638Z,240.00
2023-01-13T15:07:23.636Z,200.00
2023-01-13T15:08:23.622Z,216.00
2023-01-13T15:09:23.625Z,184.00
2023-01-13T15:10:23.586Z,156.00
2023-01-13T15:11:25.779Z,188.00
2023-01-13T15:12:23.584Z,148.00
2023-01-13T15:13:23.571Z,144.00
2023-01-13T15:14:23.561Z,152.00
2023-01-13T15:15:23.553Z,176.00
2023-01-13T15:16:23.597Z,168.00
2023-01-13T15:17:23.527Z,128.00
2023-01-13T15:18:23.511Z,104.00
2023-01-13T15:19:23.517Z,120.00
2023-01-13T15:20:23.505Z,100.00
2023-01-13T15:21:23.475Z,84.00
2023-01-13T15:22:23.457Z,148.00
2023-01-13T15:23:23.453Z,160.00
2023-01-13T15:24:23.453Z,192.00
2023-01-13T15:25:23.432Z,176.00
2023-01-13T15:26:23.422Z,196.00
2023-01-13T15:27:23.410Z,148.00
2023-01-13T15:28:23.396Z,128.00
2023-01-13T15:29:24.441Z,124.00
2023-01-13T15:30:23.372Z,104.00
2023-01-13T15:31:23.489Z,140.00
2023-01-13T15:32:23.342Z,108.00
2023-01-13T15:33:23.348Z,116.00
2023-01-13T15:34:23.327Z,92.00
2023-01-13T15:35:23.334Z,60.00
2023-01-13T15:36:23.314Z,52.00
2023-01-13T15:37:23.298Z,52.00
2023-01-13T15:38:23.284Z,56.00
2023-01-13T15:39:23.277Z,40.00
2023-01-13T15:40:23.263Z,28.00
2023-01-13T15:41:23.251Z,40.00
2023-01-13T15:42:23.267Z,28.00
2023-01-13T15:43:23.226Z,20.00
2023-01-13T15:44:23.198Z,36.00
2023-01-13T15:45:23.220Z,36.00
2023-01-13T15:46:23.291Z,36.00
2023-01-13T15:47:23.181Z,32.00
2023-01-13T15:48:23.173Z,20.00
2023-01-13T15:49:23.158Z,20.00
2023-01-13T15:50:23.155Z,20.00
2023-01-13T15:51:23.135Z,12.00
2023-01-13T15:52:23.127Z,16.00
2023-01-13T15:53:23.105Z,12.00
2023-01-13T15:54:23.097Z,12.00
2023-01-13T15:55:23.110Z,12.00
2023-01-13T15:56:23.056Z,12.00
2023-01-13T15:57:23.084Z,12.00
2023-01-13T15:58:23.038Z,12.00
2023-01-13T15:59:23.041Z,8.00
2023-01-13T16:00:23.024Z,8.00
2023-01-13T16:01:23.243Z,4.00
2023-01-13T16:02:23.011Z,8.00
2023-01-13T16:03:23.000Z,4.00
2023-01-13T16:04:22.993Z,4.00
2023-01-13T16:05:22.977Z,4.00
2023-01-13T16:06:22.959Z,4.00
2023-01-13T16:07:22.956Z,4.00
2023-01-13T16:08:22.948Z,4.00
2023-01-13T16:09:22.928Z,4.00
2023-01-13T16:10:22.922Z,4.00
2023-01-13T16:11:22.911Z,0.00
2023-01-13T16:12:22.890Z,4.00
2023-01-13T16:13:22.879Z,0.00
2023-01-13T16:14:22.877Z,4.00
2023-01-13T16:15:22.870Z,4.00
2023-01-13T16:16:22.907Z,4.00
2023-01-13T16:17:22.844Z,0.00
2023-01-13T16:18:22.820Z,0.00
2023-01-13T16:19:22.818Z,0.00
2023-01-13T16:20:22.837Z,0.00
2023-01-13T16:21:22.816Z,0.00
2023-01-13T16:22:22.788Z,0.00
2023-01-13T16:23:22.805Z,0.00
2023-01-13T16:24:23.738Z,0.00
2023-01-13T16:25:23.801Z,0.00
2023-01-13T16:26:22.785Z,0.00
2023-01-13T16:27:22.737Z,0.00
2023-01-13T16:28:22.735Z,0.00
2023-01-13T16:29:22.729Z,0.00
2023-01-13T16:30:22.739Z,0.00
2023-01-13T16:31:22.743Z,0.00
2023-01-13T16:32:22.687Z,0.00
2023-01-13T16:33:22.694Z,0.00
2023-01-13T16:34:22.684Z,0.00
2023-01-13T16:35:22.696Z,0.00
2023-01-13T16:36:22.683Z,0.00
2023-01-13T16:37:22.652Z,0.00
2023-01-13T16:38:22.646Z,0.00
2023-01-13T16:39:22.623Z,0.00
2023-01-13T16:40:22.671Z,0.00
2023-01-13T16:41:22.639Z,0.00
2023-01-13T16:42:22.593Z,0.00
2023-01-13T16:43:22.586Z,0.00
2023-01-13T16:44:22.584Z,0.00
2023-01-13T16:45:22.577Z,0.00
2023-01-13T16:46:22.560Z,0.00
2023-01-13T16:47:22.564Z,0.00
